sensor_id;sensor_type;location;lat;lon;timestamp;pressure;altitude;pressure_sealevel;temperature;humidity
50632;BME280;49583;45.590;-122.498;2023-07-29T00:01:15;101152.83;;;30.50;30.42
50632;BME280;49583;45.590;-122.498;2023-07-29T00:03:27;101153.68;;;30.50;30.60
50632;BME280;49583;45.590;-122.498;2023-07-29T00:05:42;101144.52;;;30.51;30.37
50632;BME280;49583;45.590;-122.498;2023-07-29T00:07:55;101141.70;;;30.51;30.50
50632;BME280;49583;45.590;-122.498;2023-07-29T00:10:10;101135.98;;;30.55;29.98
50632;BME280;49583;45.590;-122.498;2023-07-29T00:12:23;101142.61;;;30.58;30.04
50632;BME280;49583;45.590;-122.498;2023-07-29T00:14:36;101138.59;;;30.61;29.88
50632;BME280;49583;45.590;-122.498;2023-07-29T00:16:48;101137.15;;;30.64;29.72
50632;BME280;49583;45.590;-122.498;2023-07-29T00:19:01;101136.35;;;30.62;29.57
50632;BME280;49583;45.590;-122.498;2023-07-29T00:21:14;101132.73;;;30.63;29.63
50632;BME280;49583;45.590;-122.498;2023-07-29T00:23:27;101129.11;;;30.65;29.81
50632;BME280;49583;45.590;-122.498;2023-07-29T00:25:40;101128.84;;;30.64;29.66
50632;BME280;49583;45.590;-122.498;2023-07-29T00:27:54;101126.31;;;30.64;29.90
50632;BME280;49583;45.590;-122.498;2023-07-29T00:30:09;101130.34;;;30.68;29.95
50632;BME280;49583;45.590;-122.498;2023-07-29T00:32:21;101127.77;;;30.71;29.79
50632;BME280;49583;45.590;-122.498;2023-07-29T00:34:34;101130.65;;;30.73;29.67
50632;BME280;49583;45.590;-122.498;2023-07-29T00:36:47;101128.34;;;30.71;29.59
50632;BME280;49583;45.590;-122.498;2023-07-29T00:39:00;101123.58;;;30.69;29.46
50632;BME280;49583;45.590;-122.498;2023-07-29T00:41:14;101124.72;;;30.67;29.24
50632;BME280;49583;45.590;-122.498;2023-07-29T00:43:26;101123.91;;;30.65;29.45
50632;BME280;49583;45.590;-122.498;2023-07-29T00:45:39;101120.48;;;30.63;29.51
50632;BME280;49583;45.590;-122.498;2023-07-29T00:47:55;101120.69;;;30.60;29.69
50632;BME280;49583;45.590;-122.498;2023-07-29T00:50:11;101120.47;;;30.55;29.73
50632;BME280;49583;45.590;-122.498;2023-07-29T00:52:25;101117.86;;;30.51;29.78
50632;BME280;49583;45.590;-122.498;2023-07-29T00:54:37;101114.34;;;30.46;29.79
50632;BME280;49583;45.590;-122.498;2023-07-29T00:56:51;101112.72;;;30.40;29.94
50632;BME280;49583;45.590;-122.498;2023-07-29T00:59:08;101112.92;;;30.38;29.97
50632;BME280;49583;45.590;-122.498;2023-07-29T01:01:21;101115.27;;;30.36;30.00
50632;BME280;49583;45.590;-122.498;2023-07-29T01:03:34;101113.09;;;30.35;30.03
50632;BME280;49583;45.590;-122.498;2023-07-29T01:05:54;101110.73;;;30.32;30.27
50632;BME280;49583;45.590;-122.498;2023-07-29T01:08:14;101115.11;;;30.34;30.46
50632;BME280;49583;45.590;-122.498;2023-07-29T01:10:36;101116.19;;;30.31;30.56
50632;BME280;49583;45.590;-122.498;2023-07-29T01:12:54;101116.91;;;30.28;30.59
50632;BME280;49583;45.590;-122.498;2023-07-29T01:15:12;101113.88;;;30.25;30.65
50632;BME280;49583;45.590;-122.498;2023-07-29T01:17:40;101110.91;;;30.20;30.49
50632;BME280;49583;45.590;-122.498;2023-07-29T01:20:03;101106.61;;;30.16;30.71
50632;BME280;49583;45.590;-122.498;2023-07-29T01:22:21;101107.02;;;30.10;30.79
50632;BME280;49583;45.590;-122.498;2023-07-29T01:24:34;101108.48;;;30.06;30.91
50632;BME280;49583;45.590;-122.498;2023-07-29T01:26:46;101110.10;;;30.05;31.08
50632;BME280;49583;45.590;-122.498;2023-07-29T01:29:00;101108.18;;;30.03;31.03
50632;BME280;49583;45.590;-122.498;2023-07-29T01:31:15;101110.23;;;30.01;31.10
50632;BME280;49583;45.590;-122.498;2023-07-29T01:33:30;101106.83;;;29.98;31.03
50632;BME280;49583;45.590;-122.498;2023-07-29T01:35:46;101105.41;;;29.96;31.07
50632;BME280;49583;45.590;-122.498;2023-07-29T01:38:03;101102.44;;;29.92;31.23
50632;BME280;49583;45.590;-122.498;2023-07-29T01:40:17;101107.34;;;29.89;31.20
50632;BME280;49583;45.590;-122.498;2023-07-29T01:42:33;101106.92;;;29.83;31.23
50632;BME280;49583;45.590;-122.498;2023-07-29T01:44:46;101106.54;;;29.77;31.31
50632;BME280;49583;45.590;-122.498;2023-07-29T01:47:00;101106.76;;;29.72;31.48
50632;BME280;49583;45.590;-122.498;2023-07-29T01:49:13;101110.32;;;29.69;31.47
50632;BME280;49583;45.590;-122.498;2023-07-29T01:51:26;101110.77;;;29.66;31.67
50632;BME280;49583;45.590;-122.498;2023-07-29T01:53:39;101110.49;;;29.66;31.82
50632;BME280;49583;45.590;-122.498;2023-07-29T01:55:52;101115.36;;;29.62;31.86
50632;BME280;49583;45.590;-122.498;2023-07-29T01:58:06;101115.40;;;29.57;32.00
50632;BME280;49583;45.590;-122.498;2023-07-29T02:00:19;101116.36;;;29.52;32.07
50632;BME280;49583;45.590;-122.498;2023-07-29T02:02:33;101113.92;;;29.45;32.31
50632;BME280;49583;45.590;-122.498;2023-07-29T02:04:46;101111.33;;;29.41;32.52
50632;BME280;49583;45.590;-122.498;2023-07-29T02:07:02;101109.40;;;29.34;32.39
50632;BME280;49583;45.590;-122.498;2023-07-29T02:09:14;101107.64;;;29.27;32.60
50632;BME280;49583;45.590;-122.498;2023-07-29T02:11:27;101108.64;;;29.22;32.84
50632;BME280;49583;45.590;-122.498;2023-07-29T02:13:40;101112.56;;;29.18;32.88
50632;BME280;49583;45.590;-122.498;2023-07-29T02:15:52;101113.16;;;29.15;32.92
50632;BME280;49583;45.590;-122.498;2023-07-29T02:18:05;101112.36;;;29.12;32.97
50632;BME280;49583;45.590;-122.498;2023-07-29T02:20:18;101113.70;;;29.07;32.93
50632;BME280;49583;45.590;-122.498;2023-07-29T02:22:31;101117.23;;;29.03;32.85
50632;BME280;49583;45.590;-122.498;2023-07-29T02:24:45;101120.30;;;28.99;32.77
50632;BME280;49583;45.590;-122.498;2023-07-29T02:26:58;101119.20;;;28.95;32.82
50632;BME280;49583;45.590;-122.498;2023-07-29T02:29:10;101122.97;;;28.91;32.98
50632;BME280;49583;45.590;-122.498;2023-07-29T02:31:24;101125.31;;;28.85;32.90
50632;BME280;49583;45.590;-122.498;2023-07-29T02:33:38;101127.86;;;28.81;32.98
50632;BME280;49583;45.590;-122.498;2023-07-29T02:35:50;101133.98;;;28.78;33.15
50632;BME280;49583;45.590;-122.498;2023-07-29T02:38:03;101130.93;;;28.74;33.11
50632;BME280;49583;45.590;-122.498;2023-07-29T02:40:18;101130.40;;;28.69;33.19
50632;BME280;49583;45.590;-122.498;2023-07-29T02:42:31;101130.73;;;28.63;33.31
50632;BME280;49583;45.590;-122.498;2023-07-29T02:44:43;101127.33;;;28.57;33.31
50632;BME280;49583;45.590;-122.498;2023-07-29T02:46:56;101130.53;;;28.52;33.17
50632;BME280;49583;45.590;-122.498;2023-07-29T02:49:09;101130.42;;;28.48;33.38
50632;BME280;49583;45.590;-122.498;2023-07-29T02:51:22;101133.73;;;28.44;33.01
50632;BME280;49583;45.590;-122.498;2023-07-29T02:53:35;101131.44;;;28.36;32.75
50632;BME280;49583;45.590;-122.498;2023-07-29T02:55:48;101133.16;;;28.30;32.74
50632;BME280;49583;45.590;-122.498;2023-07-29T02:58:01;101136.36;;;28.25;32.61
50632;BME280;49583;45.590;-122.498;2023-07-29T03:00:16;101133.14;;;28.20;32.45
50632;BME280;49583;45.590;-122.498;2023-07-29T03:02:29;101134.90;;;28.14;32.32
50632;BME280;49583;45.590;-122.498;2023-07-29T03:04:42;101130.49;;;28.08;32.28
50632;BME280;49583;45.590;-122.498;2023-07-29T03:06:55;101135.56;;;28.01;32.22
50632;BME280;49583;45.590;-122.498;2023-07-29T03:09:09;101129.70;;;27.95;32.04
50632;BME280;49583;45.590;-122.498;2023-07-29T03:11:22;101133.95;;;27.91;32.00
50632;BME280;49583;45.590;-122.498;2023-07-29T03:13:35;101130.83;;;27.86;31.72
50632;BME280;49583;45.590;-122.498;2023-07-29T03:15:47;101131.81;;;27.79;31.57
50632;BME280;49583;45.590;-122.498;2023-07-29T03:18:00;101135.06;;;27.73;31.44
50632;BME280;49583;45.590;-122.498;2023-07-29T03:20:13;101135.49;;;27.69;31.57
50632;BME280;49583;45.590;-122.498;2023-07-29T03:22:28;101134.09;;;27.64;31.57
50632;BME280;49583;45.590;-122.498;2023-07-29T03:24:40;101131.10;;;27.59;31.95
50632;BME280;49583;45.590;-122.498;2023-07-29T03:26:53;101132.86;;;27.50;31.91
50632;BME280;49583;45.590;-122.498;2023-07-29T03:29:05;101138.63;;;27.45;32.32
50632;BME280;49583;45.590;-122.498;2023-07-29T03:31:19;101135.09;;;27.39;32.60
50632;BME280;49583;45.590;-122.498;2023-07-29T03:33:31;101139.51;;;27.33;32.67
50632;BME280;49583;45.590;-122.498;2023-07-29T03:35:44;101137.73;;;27.28;32.79
50632;BME280;49583;45.590;-122.498;2023-07-29T03:37:58;101139.79;;;27.23;33.10
50632;BME280;49583;45.590;-122.498;2023-07-29T03:40:12;101141.94;;;27.15;33.30
50632;BME280;49583;45.590;-122.498;2023-07-29T03:42:24;101150.48;;;27.10;33.29
50632;BME280;49583;45.590;-122.498;2023-07-29T03:44:38;101149.95;;;27.05;33.59
50632;BME280;49583;45.590;-122.498;2023-07-29T03:46:51;101154.30;;;26.99;34.02
50632;BME280;49583;45.590;-122.498;2023-07-29T03:49:04;101156.65;;;26.94;34.34
50632;BME280;49583;45.590;-122.498;2023-07-29T03:51:17;101159.92;;;26.90;34.77
50632;BME280;49583;45.590;-122.498;2023-07-29T03:53:29;101164.33;;;26.84;35.32
50632;BME280;49583;45.590;-122.498;2023-07-29T03:55:42;101171.66;;;26.76;35.81
50632;BME280;49583;45.590;-122.498;2023-07-29T03:57:55;101175.55;;;26.69;36.14
50632;BME280;49583;45.590;-122.498;2023-07-29T04:00:09;101178.67;;;26.61;36.29
50632;BME280;49583;45.590;-122.498;2023-07-29T04:02:24;101186.42;;;26.51;36.54
50632;BME280;49583;45.590;-122.498;2023-07-29T04:04:37;101182.14;;;26.40;36.84
50632;BME280;49583;45.590;-122.498;2023-07-29T04:06:52;101189.88;;;26.31;36.96
50632;BME280;49583;45.590;-122.498;2023-07-29T04:09:04;101194.70;;;26.24;37.14
50632;BME280;49583;45.590;-122.498;2023-07-29T04:11:18;101197.02;;;26.17;37.52
50632;BME280;49583;45.590;-122.498;2023-07-29T04:13:31;101203.69;;;26.09;37.69
50632;BME280;49583;45.590;-122.498;2023-07-29T04:15:43;101205.40;;;25.99;38.01
50632;BME280;49583;45.590;-122.498;2023-07-29T04:17:56;101210.52;;;25.88;38.03
50632;BME280;49583;45.590;-122.498;2023-07-29T04:20:11;101211.32;;;25.78;38.11
50632;BME280;49583;45.590;-122.498;2023-07-29T04:22:24;101219.77;;;25.70;38.38
50632;BME280;49583;45.590;-122.498;2023-07-29T04:24:37;101221.12;;;25.62;38.35
50632;BME280;49583;45.590;-122.498;2023-07-29T04:26:50;101227.93;;;25.54;38.63
50632;BME280;49583;45.590;-122.498;2023-07-29T04:29:03;101235.02;;;25.48;38.83
50632;BME280;49583;45.590;-122.498;2023-07-29T04:31:15;101239.77;;;25.39;38.93
50632;BME280;49583;45.590;-122.498;2023-07-29T04:33:29;101242.73;;;25.29;39.08
50632;BME280;49583;45.590;-122.498;2023-07-29T04:35:45;101244.39;;;25.16;39.17
50632;BME280;49583;45.590;-122.498;2023-07-29T04:37:58;101245.59;;;25.09;39.38
50632;BME280;49583;45.590;-122.498;2023-07-29T04:40:11;101247.92;;;25.00;39.52
50632;BME280;49583;45.590;-122.498;2023-07-29T04:42:24;101244.52;;;24.93;39.79
50632;BME280;49583;45.590;-122.498;2023-07-29T04:44:37;101250.95;;;24.89;39.78
50632;BME280;49583;45.590;-122.498;2023-07-29T04:46:52;101256.17;;;24.82;39.92
50632;BME280;49583;45.590;-122.498;2023-07-29T04:49:04;101258.70;;;24.75;40.12
50632;BME280;49583;45.590;-122.498;2023-07-29T04:51:17;101261.00;;;24.67;40.26
50632;BME280;49583;45.590;-122.498;2023-07-29T04:53:30;101260.45;;;24.61;40.36
50632;BME280;49583;45.590;-122.498;2023-07-29T04:55:43;101258.59;;;24.55;40.43
50632;BME280;49583;45.590;-122.498;2023-07-29T04:57:56;101262.13;;;24.49;40.53
50632;BME280;49583;45.590;-122.498;2023-07-29T05:00:12;101262.77;;;24.40;40.62
50632;BME280;49583;45.590;-122.498;2023-07-29T05:02:27;101260.69;;;24.34;40.82
50632;BME280;49583;45.590;-122.498;2023-07-29T05:04:39;101262.44;;;24.28;40.90
50632;BME280;49583;45.590;-122.498;2023-07-29T05:06:52;101262.84;;;24.23;41.08
50632;BME280;49583;45.590;-122.498;2023-07-29T05:09:14;101262.70;;;24.16;41.19
50632;BME280;49583;45.590;-122.498;2023-07-29T05:11:28;101266.36;;;24.11;41.27
50632;BME280;49583;45.590;-122.498;2023-07-29T05:13:41;101265.82;;;24.04;41.46
50632;BME280;49583;45.590;-122.498;2023-07-29T05:15:54;101266.34;;;23.96;41.56
50632;BME280;49583;45.590;-122.498;2023-07-29T05:18:07;101267.77;;;23.90;41.71
50632;BME280;49583;45.590;-122.498;2023-07-29T05:20:20;101264.15;;;23.85;41.82
50632;BME280;49583;45.590;-122.498;2023-07-29T05:22:32;101262.08;;;23.77;41.83
50632;BME280;49583;45.590;-122.498;2023-07-29T05:24:45;101256.64;;;23.70;42.02
50632;BME280;49583;45.590;-122.498;2023-07-29T05:26:57;101258.70;;;23.62;42.05
50632;BME280;49583;45.590;-122.498;2023-07-29T05:29:10;101262.36;;;23.55;42.20
50632;BME280;49583;45.590;-122.498;2023-07-29T05:31:24;101256.05;;;23.47;42.33
50632;BME280;49583;45.590;-122.498;2023-07-29T05:33:36;101259.42;;;23.39;42.41
50632;BME280;49583;45.590;-122.498;2023-07-29T05:35:49;101260.19;;;23.33;42.51
50632;BME280;49583;45.590;-122.498;2023-07-29T05:38:02;101258.66;;;23.26;42.68
50632;BME280;49583;45.590;-122.498;2023-07-29T05:40:16;101258.08;;;23.20;42.81
50632;BME280;49583;45.590;-122.498;2023-07-29T05:42:29;101259.92;;;23.12;42.79
50632;BME280;49583;45.590;-122.498;2023-07-29T05:44:42;101259.66;;;23.06;42.94
50632;BME280;49583;45.590;-122.498;2023-07-29T05:46:54;101262.70;;;23.01;43.24
50632;BME280;49583;45.590;-122.498;2023-07-29T05:49:07;101265.30;;;22.95;43.15
50632;BME280;49583;45.590;-122.498;2023-07-29T05:51:19;101266.02;;;22.91;43.45
50632;BME280;49583;45.590;-122.498;2023-07-29T05:53:32;101267.09;;;22.85;43.51
50632;BME280;49583;45.590;-122.498;2023-07-29T05:55:45;101268.96;;;22.80;43.53
50632;BME280;49583;45.590;-122.498;2023-07-29T05:57:57;101268.39;;;22.77;43.83
50632;BME280;49583;45.590;-122.498;2023-07-29T06:00:12;101271.23;;;22.72;43.79
50632;BME280;49583;45.590;-122.498;2023-07-29T06:02:26;101265.34;;;22.63;43.80
50632;BME280;49583;45.590;-122.498;2023-07-29T06:04:39;101268.98;;;22.56;43.82
50632;BME280;49583;45.590;-122.498;2023-07-29T06:06:52;101271.82;;;22.49;44.05
50632;BME280;49583;45.590;-122.498;2023-07-29T06:09:05;101273.92;;;22.43;44.05
50632;BME280;49583;45.590;-122.498;2023-07-29T06:11:18;101270.86;;;22.37;44.25
50632;BME280;49583;45.590;-122.498;2023-07-29T06:13:31;101272.98;;;22.29;44.20
50632;BME280;49583;45.590;-122.498;2023-07-29T06:15:44;101281.30;;;22.22;44.30
50632;BME280;49583;45.590;-122.498;2023-07-29T06:17:56;101279.52;;;22.15;44.48
50632;BME280;49583;45.590;-122.498;2023-07-29T06:20:11;101279.92;;;22.10;44.61
50632;BME280;49583;45.590;-122.498;2023-07-29T06:22:23;101286.36;;;22.05;44.65
50632;BME280;49583;45.590;-122.498;2023-07-29T06:24:36;101284.20;;;22.01;44.78
50632;BME280;49583;45.590;-122.498;2023-07-29T06:26:49;101284.36;;;21.98;44.77
50632;BME280;49583;45.590;-122.498;2023-07-29T06:29:02;101285.09;;;21.93;45.12
50632;BME280;49583;45.590;-122.498;2023-07-29T06:31:14;101283.11;;;21.87;45.04
50632;BME280;49583;45.590;-122.498;2023-07-29T06:33:27;101285.00;;;21.84;45.10
50632;BME280;49583;45.590;-122.498;2023-07-29T06:35:40;101282.69;;;21.79;45.08
50632;BME280;49583;45.590;-122.498;2023-07-29T06:37:53;101283.40;;;21.75;45.20
50632;BME280;49583;45.590;-122.498;2023-07-29T06:40:08;101285.36;;;21.72;45.29
50632;BME280;49583;45.590;-122.498;2023-07-29T06:42:20;101287.50;;;21.67;45.32
50632;BME280;49583;45.590;-122.498;2023-07-29T06:44:34;101286.78;;;21.61;45.44
50632;BME280;49583;45.590;-122.498;2023-07-29T06:46:46;101286.05;;;21.57;45.60
50632;BME280;49583;45.590;-122.498;2023-07-29T06:48:59;101285.50;;;21.51;45.66
50632;BME280;49583;45.590;-122.498;2023-07-29T06:51:11;101293.02;;;21.46;45.76
50632;BME280;49583;45.590;-122.498;2023-07-29T06:53:24;101292.70;;;21.42;45.74
50632;BME280;49583;45.590;-122.498;2023-07-29T06:55:37;101293.09;;;21.36;45.91
50632;BME280;49583;45.590;-122.498;2023-07-29T06:57:49;101290.39;;;21.30;46.06
50632;BME280;49583;45.590;-122.498;2023-07-29T07:00:03;101291.33;;;21.25;46.17
50632;BME280;49583;45.590;-122.498;2023-07-29T07:02:16;101297.90;;;21.22;46.23
50632;BME280;49583;45.590;-122.498;2023-07-29T07:04:30;101300.97;;;21.17;46.22
50632;BME280;49583;45.590;-122.498;2023-07-29T07:06:43;101302.77;;;21.11;46.43
50632;BME280;49583;45.590;-122.498;2023-07-29T07:08:56;101306.52;;;21.05;46.46
50632;BME280;49583;45.590;-122.498;2023-07-29T07:11:08;101305.46;;;20.99;46.60
50632;BME280;49583;45.590;-122.498;2023-07-29T07:13:21;101303.36;;;20.94;46.62
50632;BME280;49583;45.590;-122.498;2023-07-29T07:15:34;101305.94;;;20.91;46.72
50632;BME280;49583;45.590;-122.498;2023-07-29T07:17:46;101309.98;;;20.86;46.83
50632;BME280;49583;45.590;-122.498;2023-07-29T07:19:59;101313.22;;;20.82;46.89
50632;BME280;49583;45.590;-122.498;2023-07-29T07:22:12;101316.19;;;20.78;46.92
50632;BME280;49583;45.590;-122.498;2023-07-29T07:24:24;101317.83;;;20.74;46.97
50632;BME280;49583;45.590;-122.498;2023-07-29T07:26:37;101318.66;;;20.69;47.14
50632;BME280;49583;45.590;-122.498;2023-07-29T07:28:50;101323.48;;;20.65;47.12
50632;BME280;49583;45.590;-122.498;2023-07-29T07:31:02;101321.21;;;20.60;47.28
50632;BME280;49583;45.590;-122.498;2023-07-29T07:33:15;101325.95;;;20.55;47.36
50632;BME280;49583;45.590;-122.498;2023-07-29T07:35:28;101327.11;;;20.52;47.50
50632;BME280;49583;45.590;-122.498;2023-07-29T07:37:41;101328.73;;;20.48;47.50
50632;BME280;49583;45.590;-122.498;2023-07-29T07:39:53;101329.88;;;20.44;47.74
50632;BME280;49583;45.590;-122.498;2023-07-29T07:42:07;101334.21;;;20.39;47.79
50632;BME280;49583;45.590;-122.498;2023-07-29T07:44:19;101332.90;;;20.34;47.93
50632;BME280;49583;45.590;-122.498;2023-07-29T07:46:32;101333.36;;;20.31;47.97
50632;BME280;49583;45.590;-122.498;2023-07-29T07:48:45;101336.25;;;20.29;48.04
50632;BME280;49583;45.590;-122.498;2023-07-29T07:50:58;101337.39;;;20.27;48.18
50632;BME280;49583;45.590;-122.498;2023-07-29T07:53:10;101335.41;;;20.24;48.17
50632;BME280;49583;45.590;-122.498;2023-07-29T07:55:23;101336.69;;;20.23;48.31
50632;BME280;49583;45.590;-122.498;2023-07-29T07:57:36;101341.35;;;20.20;48.33
50632;BME280;49583;45.590;-122.498;2023-07-29T07:59:48;101339.60;;;20.18;48.50
50632;BME280;49583;45.590;-122.498;2023-07-29T08:02:02;101338.98;;;20.14;48.56
50632;BME280;49583;45.590;-122.498;2023-07-29T08:04:15;101336.23;;;20.11;48.67
50632;BME280;49583;45.590;-122.498;2023-07-29T08:06:27;101334.19;;;20.07;48.67
50632;BME280;49583;45.590;-122.498;2023-07-29T08:08:40;101333.75;;;20.02;48.75
50632;BME280;49583;45.590;-122.498;2023-07-29T08:10:54;101335.85;;;19.97;48.93
50632;BME280;49583;45.590;-122.498;2023-07-29T08:13:07;101341.76;;;19.93;49.07
50632;BME280;49583;45.590;-122.498;2023-07-29T08:15:19;101339.17;;;19.86;49.21
50632;BME280;49583;45.590;-122.498;2023-07-29T08:17:32;101343.58;;;19.83;49.25
50632;BME280;49583;45.590;-122.498;2023-07-29T08:19:44;101348.12;;;19.76;49.40
50632;BME280;49583;45.590;-122.498;2023-07-29T08:21:57;101351.66;;;19.70;49.41
50632;BME280;49583;45.590;-122.498;2023-07-29T08:24:09;101355.43;;;19.64;49.57
50632;BME280;49583;45.590;-122.498;2023-07-29T08:26:22;101353.06;;;19.59;49.79
50632;BME280;49583;45.590;-122.498;2023-07-29T08:28:36;101347.21;;;19.55;50.04
50632;BME280;49583;45.590;-122.498;2023-07-29T08:30:48;101345.09;;;19.51;50.23
50632;BME280;49583;45.590;-122.498;2023-07-29T08:33:01;101349.38;;;19.47;50.29
50632;BME280;49583;45.590;-122.498;2023-07-29T08:35:13;101355.65;;;19.44;50.28
50632;BME280;49583;45.590;-122.498;2023-07-29T08:37:26;101357.89;;;19.39;50.38
50632;BME280;49583;45.590;-122.498;2023-07-29T08:39:39;101359.89;;;19.34;50.46
50632;BME280;49583;45.590;-122.498;2023-07-29T08:41:57;101364.51;;;19.30;50.69
50632;BME280;49583;45.590;-122.498;2023-07-29T08:44:12;101363.73;;;19.27;50.90
50632;BME280;49583;45.590;-122.498;2023-07-29T08:46:30;101366.11;;;19.22;50.97
50632;BME280;49583;45.590;-122.498;2023-07-29T08:48:44;101364.86;;;19.19;51.14
50632;BME280;49583;45.590;-122.498;2023-07-29T08:50:58;101364.86;;;19.15;51.21
50632;BME280;49583;45.590;-122.498;2023-07-29T08:53:12;101362.98;;;19.10;51.32
50632;BME280;49583;45.590;-122.498;2023-07-29T08:55:25;101364.35;;;19.04;51.52
50632;BME280;49583;45.590;-122.498;2023-07-29T08:57:39;101367.13;;;18.99;51.55
50632;BME280;49583;45.590;-122.498;2023-07-29T08:59:51;101376.51;;;18.94;51.69
50632;BME280;49583;45.590;-122.498;2023-07-29T09:02:04;101377.95;;;18.89;51.90
50632;BME280;49583;45.590;-122.498;2023-07-29T09:04:18;101384.04;;;18.83;52.02
50632;BME280;49583;45.590;-122.498;2023-07-29T09:06:31;101387.55;;;18.78;52.19
50632;BME280;49583;45.590;-122.498;2023-07-29T09:08:45;101385.33;;;18.75;52.40
50632;BME280;49583;45.590;-122.498;2023-07-29T09:10:59;101389.06;;;18.72;52.60
50632;BME280;49583;45.590;-122.498;2023-07-29T09:13:12;101386.67;;;18.69;52.64
50632;BME280;49583;45.590;-122.498;2023-07-29T09:15:32;101392.30;;;18.67;52.87
50632;BME280;49583;45.590;-122.498;2023-07-29T09:17:45;101390.81;;;18.65;52.99
50632;BME280;49583;45.590;-122.498;2023-07-29T09:19:58;101392.15;;;18.62;53.04
50632;BME280;49583;45.590;-122.498;2023-07-29T09:22:19;101394.84;;;18.58;53.19
50632;BME280;49583;45.590;-122.498;2023-07-29T09:24:32;101397.27;;;18.55;53.15
50632;BME280;49583;45.590;-122.498;2023-07-29T09:26:51;101399.17;;;18.51;53.39
50632;BME280;49583;45.590;-122.498;2023-07-29T09:29:06;101397.44;;;18.47;53.37
50632;BME280;49583;45.590;-122.498;2023-07-29T09:31:24;101396.56;;;18.43;53.48
50632;BME280;49583;45.590;-122.498;2023-07-29T09:33:38;101399.96;;;18.40;53.66
50632;BME280;49583;45.590;-122.498;2023-07-29T09:35:51;101401.78;;;18.39;53.74
50632;BME280;49583;45.590;-122.498;2023-07-29T09:38:03;101402.24;;;18.36;53.84
50632;BME280;49583;45.590;-122.498;2023-07-29T09:40:18;101402.66;;;18.34;53.91
50632;BME280;49583;45.590;-122.498;2023-07-29T09:42:31;101401.21;;;18.30;53.94
50632;BME280;49583;45.590;-122.498;2023-07-29T09:44:43;101403.66;;;18.27;54.10
50632;BME280;49583;45.590;-122.498;2023-07-29T09:46:56;101404.54;;;18.25;54.19
50632;BME280;49583;45.590;-122.498;2023-07-29T09:49:10;101401.13;;;18.21;54.31
50632;BME280;49583;45.590;-122.498;2023-07-29T09:51:23;101406.67;;;18.18;54.39
50632;BME280;49583;45.590;-122.498;2023-07-29T09:53:42;101405.39;;;18.15;54.35
50632;BME280;49583;45.590;-122.498;2023-07-29T09:55:56;101408.39;;;18.11;54.48
50632;BME280;49583;45.590;-122.498;2023-07-29T09:58:09;101411.06;;;18.07;54.58
50632;BME280;49583;45.590;-122.498;2023-07-29T10:00:22;101412.89;;;18.04;54.74
50632;BME280;49583;45.590;-122.498;2023-07-29T10:02:35;101412.02;;;18.01;54.78
50632;BME280;49583;45.590;-122.498;2023-07-29T10:04:48;101413.59;;;17.98;54.80
50632;BME280;49583;45.590;-122.498;2023-07-29T10:07:02;101413.12;;;17.95;55.00
50632;BME280;49583;45.590;-122.498;2023-07-29T10:09:15;101412.15;;;17.93;55.18
50632;BME280;49583;45.590;-122.498;2023-07-29T10:11:30;101410.08;;;17.90;55.22
50632;BME280;49583;45.590;-122.498;2023-07-29T10:13:44;101410.71;;;17.87;55.33
50632;BME280;49583;45.590;-122.498;2023-07-29T10:16:16;101410.06;;;17.84;55.43
50632;BME280;49583;45.590;-122.498;2023-07-29T10:18:29;101407.11;;;17.82;55.63
50632;BME280;49583;45.590;-122.498;2023-07-29T10:20:44;101412.74;;;17.80;55.98
50632;BME280;49583;45.590;-122.498;2023-07-29T10:23:01;101415.11;;;17.77;56.11
50632;BME280;49583;45.590;-122.498;2023-07-29T10:25:18;101416.11;;;17.75;56.40
50632;BME280;49583;45.590;-122.498;2023-07-29T10:27:38;101418.80;;;17.74;56.69
50632;BME280;49583;45.590;-122.498;2023-07-29T10:29:56;101421.02;;;17.71;56.90
50632;BME280;49583;45.590;-122.498;2023-07-29T10:32:27;101421.79;;;17.68;57.15
50632;BME280;49583;45.590;-122.498;2023-07-29T10:34:41;101421.31;;;17.65;57.05
50632;BME280;49583;45.590;-122.498;2023-07-29T10:36:54;101421.30;;;17.62;56.98
50632;BME280;49583;45.590;-122.498;2023-07-29T10:39:08;101419.90;;;17.59;56.90
50632;BME280;49583;45.590;-122.498;2023-07-29T10:41:23;101421.16;;;17.58;57.00
50632;BME280;49583;45.590;-122.498;2023-07-29T10:43:36;101419.90;;;17.55;56.94
50632;BME280;49583;45.590;-122.498;2023-07-29T10:45:50;101421.38;;;17.52;57.08
50632;BME280;49583;45.590;-122.498;2023-07-29T10:48:41;101422.16;;;17.50;57.11
50632;BME280;49583;45.590;-122.498;2023-07-29T10:51:24;101418.73;;;17.43;57.14
50632;BME280;49583;45.590;-122.498;2023-07-29T10:53:39;101422.73;;;17.39;57.32
50632;BME280;49583;45.590;-122.498;2023-07-29T10:55:53;101428.41;;;17.35;57.36
50632;BME280;49583;45.590;-122.498;2023-07-29T10:58:13;101428.23;;;17.30;57.47
50632;BME280;49583;45.590;-122.498;2023-07-29T11:00:32;101428.29;;;17.27;57.57
50632;BME280;49583;45.590;-122.498;2023-07-29T11:02:56;101428.28;;;17.24;57.75
50632;BME280;49583;45.590;-122.498;2023-07-29T11:05:18;101427.92;;;17.20;57.87
50632;BME280;49583;45.590;-122.498;2023-07-29T11:07:31;101425.08;;;17.18;57.94
50632;BME280;49583;45.590;-122.498;2023-07-29T11:10:02;101424.73;;;17.14;58.03
50632;BME280;49583;45.590;-122.498;2023-07-29T11:12:46;101419.73;;;17.10;58.16
50632;BME280;49583;45.590;-122.498;2023-07-29T11:15:02;101423.65;;;17.07;58.24